sensor_id;sensor_type;location;lat;lon;timestamp;P1;durP1;ratioP1;P2;durP2;ratioP2
19084;SDS011;9675;51.538;6.728;2024-03-07T00:01:04;32.20;;;13.63;;
19084;SDS011;9675;51.538;6.728;2024-03-07T00:03:32;30.43;;;12.07;;
19084;SDS011;9675;51.538;6.728;2024-03-07T00:06:01;37.53;;;13.40;;
19084;SDS011;9675;51.538;6.728;2024-03-07T00:08:28;32.60;;;12.97;;
19084;SDS011;9675;51.538;6.728;2024-03-07T00:10:55;34.47;;;13.33;;
19084;SDS011;9675;51.538;6.728;2024-03-07T00:13:22;39.10;;;13.73;;
19084;SDS011;9675;51.538;6.728;2024-03-07T00:15:49;33.63;;;12.50;;
19084;SDS011;9675;51.538;6.728;2024-03-07T00:18:16;35.73;;;13.17;;
19084;SDS011;9675;51.538;6.728;2024-03-07T00:20:43;32.53;;;12.57;;
19084;SDS011;9675;51.538;6.728;2024-03-07T00:23:12;29.53;;;11.23;;
19084;SDS011;9675;51.538;6.728;2024-03-07T00:25:39;36.77;;;13.40;;
19084;SDS011;9675;51.538;6.728;2024-03-07T00:28:06;29.13;;;12.87;;
19084;SDS011;9675;51.538;6.728;2024-03-07T00:30:33;28.93;;;11.87;;
19084;SDS011;9675;51.538;6.728;2024-03-07T00:33:00;33.33;;;13.00;;
19084;SDS011;9675;51.538;6.728;2024-03-07T00:35:27;32.53;;;13.30;;
19084;SDS011;9675;51.538;6.728;2024-03-07T00:37:54;39.40;;;13.60;;
19084;SDS011;9675;51.538;6.728;2024-03-07T00:40:24;32.43;;;12.70;;
19084;SDS011;9675;51.538;6.728;2024-03-07T00:42:51;31.97;;;12.67;;
19084;SDS011;9675;51.538;6.728;2024-03-07T00:45:18;28.90;;;12.40;;
19084;SDS011;9675;51.538;6.728;2024-03-07T00:47:45;29.33;;;11.63;;
19084;SDS011;9675;51.538;6.728;2024-03-07T00:50:13;30.70;;;11.80;;
19084;SDS011;9675;51.538;6.728;2024-03-07T00:52:41;30.57;;;11.67;;
19084;SDS011;9675;51.538;6.728;2024-03-07T00:55:08;33.83;;;13.10;;
19084;SDS011;9675;51.538;6.728;2024-03-07T00:57:36;30.47;;;12.37;;
19084;SDS011;9675;51.538;6.728;2024-03-07T01:00:04;30.53;;;11.70;;
19084;SDS011;9675;51.538;6.728;2024-03-07T01:02:36;34.77;;;13.23;;
19084;SDS011;9675;51.538;6.728;2024-03-07T01:05:04;35.43;;;12.67;;
19084;SDS011;9675;51.538;6.728;2024-03-07T01:07:34;30.17;;;12.27;;
19084;SDS011;9675;51.538;6.728;2024-03-07T01:10:02;29.57;;;12.57;;
19084;SDS011;9675;51.538;6.728;2024-03-07T01:12:31;31.30;;;12.23;;
19084;SDS011;9675;51.538;6.728;2024-03-07T01:15:00;32.70;;;12.50;;
19084;SDS011;9675;51.538;6.728;2024-03-07T01:17:29;36.10;;;12.93;;
19084;SDS011;9675;51.538;6.728;2024-03-07T01:19:56;31.13;;;11.47;;
19084;SDS011;9675;51.538;6.728;2024-03-07T01:22:23;31.63;;;12.37;;
19084;SDS011;9675;51.538;6.728;2024-03-07T01:24:51;33.87;;;13.13;;
19084;SDS011;9675;51.538;6.728;2024-03-07T01:27:18;26.70;;;11.37;;
19084;SDS011;9675;51.538;6.728;2024-03-07T01:29:45;28.70;;;12.20;;
19084;SDS011;9675;51.538;6.728;2024-03-07T01:32:13;29.23;;;11.73;;
19084;SDS011;9675;51.538;6.728;2024-03-07T01:34:40;30.37;;;11.83;;
19084;SDS011;9675;51.538;6.728;2024-03-07T01:37:07;32.17;;;12.37;;
19084;SDS011;9675;51.538;6.728;2024-03-07T01:39:34;28.67;;;11.10;;
19084;SDS011;9675;51.538;6.728;2024-03-07T01:42:01;27.83;;;12.03;;
19084;SDS011;9675;51.538;6.728;2024-03-07T01:44:28;30.17;;;11.93;;
19084;SDS011;9675;51.538;6.728;2024-03-07T01:46:56;30.80;;;12.70;;
19084;SDS011;9675;51.538;6.728;2024-03-07T01:49:26;33.63;;;11.47;;
19084;SDS011;9675;51.538;6.728;2024-03-07T01:51:53;32.03;;;11.90;;
19084;SDS011;9675;51.538;6.728;2024-03-07T01:54:20;33.97;;;12.00;;
19084;SDS011;9675;51.538;6.728;2024-03-07T01:56:47;27.87;;;11.77;;
19084;SDS011;9675;51.538;6.728;2024-03-07T01:59:15;30.40;;;12.07;;
19084;SDS011;9675;51.538;6.728;2024-03-07T02:01:43;31.13;;;12.13;;
19084;SDS011;9675;51.538;6.728;2024-03-07T02:04:11;34.30;;;12.93;;
19084;SDS011;9675;51.538;6.728;2024-03-07T02:06:41;29.00;;;11.43;;
19084;SDS011;9675;51.538;6.728;2024-03-07T02:09:08;29.47;;;12.03;;
19084;SDS011;9675;51.538;6.728;2024-03-07T02:11:35;27.47;;;12.47;;
19084;SDS011;9675;51.538;6.728;2024-03-07T02:14:02;28.00;;;11.73;;
19084;SDS011;9675;51.538;6.728;2024-03-07T02:16:29;31.93;;;10.67;;
19084;SDS011;9675;51.538;6.728;2024-03-07T02:18:57;26.30;;;11.93;;
19084;SDS011;9675;51.538;6.728;2024-03-07T02:21:27;26.27;;;11.30;;
19084;SDS011;9675;51.538;6.728;2024-03-07T02:23:54;29.23;;;11.87;;
19084;SDS011;9675;51.538;6.728;2024-03-07T02:26:21;28.03;;;11.57;;
19084;SDS011;9675;51.538;6.728;2024-03-07T02:28:48;28.30;;;11.77;;
19084;SDS011;9675;51.538;6.728;2024-03-07T02:31:15;26.57;;;12.87;;
19084;SDS011;9675;51.538;6.728;2024-03-07T02:33:45;29.60;;;11.87;;
19084;SDS011;9675;51.538;6.728;2024-03-07T02:36:12;31.20;;;11.33;;
19084;SDS011;9675;51.538;6.728;2024-03-07T02:38:40;29.97;;;11.93;;
19084;SDS011;9675;51.538;6.728;2024-03-07T02:41:07;27.20;;;10.50;;
19084;SDS011;9675;51.538;6.728;2024-03-07T02:43:34;29.53;;;11.60;;
19084;SDS011;9675;51.538;6.728;2024-03-07T02:46:03;31.47;;;11.97;;
19084;SDS011;9675;51.538;6.728;2024-03-07T02:48:30;32.37;;;11.10;;
19084;SDS011;9675;51.538;6.728;2024-03-07T02:50:57;29.27;;;12.83;;
19084;SDS011;9675;51.538;6.728;2024-03-07T02:53:24;31.43;;;13.10;;
19084;SDS011;9675;51.538;6.728;2024-03-07T02:55:53;26.40;;;11.17;;
19084;SDS011;9675;51.538;6.728;2024-03-07T02:58:20;30.07;;;12.17;;
19084;SDS011;9675;51.538;6.728;2024-03-07T03:00:47;29.57;;;12.20;;
19084;SDS011;9675;51.538;6.728;2024-03-07T03:03:15;30.90;;;12.17;;
19084;SDS011;9675;51.538;6.728;2024-03-07T03:05:42;33.07;;;12.30;;
19084;SDS011;9675;51.538;6.728;2024-03-07T03:08:10;29.03;;;12.27;;
19084;SDS011;9675;51.538;6.728;2024-03-07T03:10:39;26.13;;;11.40;;
19084;SDS011;9675;51.538;6.728;2024-03-07T03:13:07;31.60;;;11.50;;
19084;SDS011;9675;51.538;6.728;2024-03-07T03:15:34;33.30;;;12.57;;
19084;SDS011;9675;51.538;6.728;2024-03-07T03:18:03;30.20;;;12.70;;
19084;SDS011;9675;51.538;6.728;2024-03-07T03:20:30;27.90;;;12.83;;
19084;SDS011;9675;51.538;6.728;2024-03-07T03:22:59;33.33;;;12.40;;
19084;SDS011;9675;51.538;6.728;2024-03-07T03:25:28;26.53;;;11.87;;
19084;SDS011;9675;51.538;6.728;2024-03-07T03:27:55;27.77;;;12.20;;
19084;SDS011;9675;51.538;6.728;2024-03-07T03:30:24;25.27;;;11.67;;
19084;SDS011;9675;51.538;6.728;2024-03-07T03:32:51;30.90;;;12.30;;
19084;SDS011;9675;51.538;6.728;2024-03-07T03:35:18;30.43;;;12.23;;
19084;SDS011;9675;51.538;6.728;2024-03-07T03:37:45;28.67;;;12.43;;
19084;SDS011;9675;51.538;6.728;2024-03-07T03:40:12;27.73;;;11.87;;
19084;SDS011;9675;51.538;6.728;2024-03-07T03:42:40;26.93;;;11.87;;
19084;SDS011;9675;51.538;6.728;2024-03-07T03:45:09;25.27;;;11.37;;
19084;SDS011;9675;51.538;6.728;2024-03-07T03:47:42;34.87;;;12.63;;
19084;SDS011;9675;51.538;6.728;2024-03-07T03:50:10;26.73;;;11.60;;
19084;SDS011;9675;51.538;6.728;2024-03-07T03:52:39;29.47;;;11.60;;
19084;SDS011;9675;51.538;6.728;2024-03-07T03:55:07;28.03;;;11.37;;
19084;SDS011;9675;51.538;6.728;2024-03-07T03:57:37;31.83;;;13.13;;
19084;SDS011;9675;51.538;6.728;2024-03-07T04:00:07;30.40;;;11.50;;
19084;SDS011;9675;51.538;6.728;2024-03-07T04:02:39;23.33;;;11.03;;
19084;SDS011;9675;51.538;6.728;2024-03-07T04:05:08;28.17;;;11.60;;
19084;SDS011;9675;51.538;6.728;2024-03-07T04:07:38;29.37;;;12.17;;
19084;SDS011;9675;51.538;6.728;2024-03-07T04:10:07;29.73;;;12.10;;
19084;SDS011;9675;51.538;6.728;2024-03-07T04:12:35;29.07;;;11.47;;
19084;SDS011;9675;51.538;6.728;2024-03-07T04:15:04;26.87;;;12.53;;
19084;SDS011;9675;51.538;6.728;2024-03-07T04:17:34;28.83;;;12.20;;
19084;SDS011;9675;51.538;6.728;2024-03-07T04:20:04;30.93;;;12.70;;
19084;SDS011;9675;51.538;6.728;2024-03-07T04:22:32;22.90;;;10.83;;
19084;SDS011;9675;51.538;6.728;2024-03-07T04:25:00;22.87;;;10.73;;
19084;SDS011;9675;51.538;6.728;2024-03-07T04:27:29;32.20;;;12.73;;
19084;SDS011;9675;51.538;6.728;2024-03-07T04:29:56;28.47;;;11.03;;
19084;SDS011;9675;51.538;6.728;2024-03-07T04:32:23;31.50;;;11.67;;
19084;SDS011;9675;51.538;6.728;2024-03-07T04:34:50;33.97;;;13.07;;
19084;SDS011;9675;51.538;6.728;2024-03-07T04:37:18;29.57;;;11.27;;
19084;SDS011;9675;51.538;6.728;2024-03-07T04:39:46;27.73;;;11.50;;
19084;SDS011;9675;51.538;6.728;2024-03-07T04:42:13;33.90;;;13.53;;
19084;SDS011;9675;51.538;6.728;2024-03-07T04:44:41;33.23;;;12.40;;
19084;SDS011;9675;51.538;6.728;2024-03-07T04:47:08;31.87;;;12.33;;
19084;SDS011;9675;51.538;6.728;2024-03-07T04:49:35;25.73;;;11.10;;
19084;SDS011;9675;51.538;6.728;2024-03-07T04:52:02;28.07;;;12.10;;
19084;SDS011;9675;51.538;6.728;2024-03-07T04:54:32;26.77;;;11.77;;
19084;SDS011;9675;51.538;6.728;2024-03-07T04:57:00;33.17;;;13.63;;
19084;SDS011;9675;51.538;6.728;2024-03-07T04:59:27;26.13;;;11.40;;
19084;SDS011;9675;51.538;6.728;2024-03-07T05:01:54;32.33;;;12.67;;
19084;SDS011;9675;51.538;6.728;2024-03-07T05:04:21;26.33;;;11.40;;
19084;SDS011;9675;51.538;6.728;2024-03-07T05:06:54;31.90;;;12.77;;
19084;SDS011;9675;51.538;6.728;2024-03-07T05:09:22;26.10;;;11.03;;
19084;SDS011;9675;51.538;6.728;2024-03-07T05:11:52;28.77;;;10.80;;
19084;SDS011;9675;51.538;6.728;2024-03-07T05:14:20;29.40;;;12.33;;
19084;SDS011;9675;51.538;6.728;2024-03-07T05:16:47;29.30;;;12.63;;
19084;SDS011;9675;51.538;6.728;2024-03-07T05:19:29;30.43;;;12.07;;
19084;SDS011;9675;51.538;6.728;2024-03-07T05:21:58;27.93;;;11.37;;
19084;SDS011;9675;51.538;6.728;2024-03-07T05:24:25;27.13;;;11.53;;
19084;SDS011;9675;51.538;6.728;2024-03-07T05:26:53;31.07;;;12.43;;
19084;SDS011;9675;51.538;6.728;2024-03-07T05:29:21;30.73;;;12.87;;
19084;SDS011;9675;51.538;6.728;2024-03-07T05:31:49;30.97;;;12.13;;
19084;SDS011;9675;51.538;6.728;2024-03-07T05:34:16;29.40;;;11.77;;
19084;SDS011;9675;51.538;6.728;2024-03-07T05:36:44;27.83;;;10.87;;
19084;SDS011;9675;51.538;6.728;2024-03-07T05:39:12;25.33;;;10.90;;
19084;SDS011;9675;51.538;6.728;2024-03-07T05:41:41;27.77;;;10.80;;
19084;SDS011;9675;51.538;6.728;2024-03-07T05:44:11;29.87;;;11.97;;
19084;SDS011;9675;51.538;6.728;2024-03-07T05:46:39;26.20;;;10.33;;
19084;SDS011;9675;51.538;6.728;2024-03-07T05:49:11;30.67;;;11.07;;
19084;SDS011;9675;51.538;6.728;2024-03-07T05:51:38;25.63;;;10.97;;
19084;SDS011;9675;51.538;6.728;2024-03-07T05:54:07;21.90;;;10.43;;
19084;SDS011;9675;51.538;6.728;2024-03-07T05:56:34;27.90;;;11.27;;
19084;SDS011;9675;51.538;6.728;2024-03-07T05:59:02;29.40;;;11.83;;
19084;SDS011;9675;51.538;6.728;2024-03-07T06:01:33;27.83;;;11.13;;
19084;SDS011;9675;51.538;6.728;2024-03-07T06:04:00;29.10;;;12.30;;
19084;SDS011;9675;51.538;6.728;2024-03-07T06:06:30;23.10;;;10.80;;
19084;SDS011;9675;51.538;6.728;2024-03-07T06:09:00;27.47;;;12.23;;
19084;SDS011;9675;51.538;6.728;2024-03-07T06:11:32;28.33;;;11.43;;
19084;SDS011;9675;51.538;6.728;2024-03-07T06:14:00;24.13;;;11.37;;
19084;SDS011;9675;51.538;6.728;2024-03-07T06:16:28;26.30;;;11.23;;
19084;SDS011;9675;51.538;6.728;2024-03-07T06:18:59;24.50;;;10.43;;
19084;SDS011;9675;51.538;6.728;2024-03-07T06:21:26;28.83;;;11.27;;
19084;SDS011;9675;51.538;6.728;2024-03-07T06:23:54;24.53;;;10.53;;
19084;SDS011;9675;51.538;6.728;2024-03-07T06:26:24;27.17;;;10.43;;
19084;SDS011;9675;51.538;6.728;2024-03-07T06:29:02;28.70;;;11.97;;
19084;SDS011;9675;51.538;6.728;2024-03-07T06:31:31;28.60;;;11.83;;
19084;SDS011;9675;51.538;6.728;2024-03-07T06:33:59;28.17;;;11.00;;
19084;SDS011;9675;51.538;6.728;2024-03-07T06:36:26;23.40;;;10.20;;
19084;SDS011;9675;51.538;6.728;2024-03-07T06:38:53;25.30;;;12.40;;
19084;SDS011;9675;51.538;6.728;2024-03-07T06:41:20;27.77;;;10.73;;
19084;SDS011;9675;51.538;6.728;2024-03-07T06:43:48;25.57;;;12.23;;
19084;SDS011;9675;51.538;6.728;2024-03-07T06:46:15;26.17;;;11.33;;
19084;SDS011;9675;51.538;6.728;2024-03-07T06:48:45;26.63;;;10.90;;
19084;SDS011;9675;51.538;6.728;2024-03-07T06:51:13;29.70;;;11.77;;
19084;SDS011;9675;51.538;6.728;2024-03-07T06:53:42;29.53;;;9.87;;
19084;SDS011;9675;51.538;6.728;2024-03-07T06:56:10;26.37;;;11.50;;
19084;SDS011;9675;51.538;6.728;2024-03-07T06:58:38;28.60;;;11.13;;
19084;SDS011;9675;51.538;6.728;2024-03-07T07:01:05;28.40;;;11.90;;
19084;SDS011;9675;51.538;6.728;2024-03-07T07:03:35;29.70;;;10.93;;
19084;SDS011;9675;51.538;6.728;2024-03-07T07:06:03;31.90;;;12.00;;
19084;SDS011;9675;51.538;6.728;2024-03-07T07:08:33;26.87;;;11.40;;
19084;SDS011;9675;51.538;6.728;2024-03-07T07:11:00;30.13;;;11.70;;
19084;SDS011;9675;51.538;6.728;2024-03-07T07:13:28;29.27;;;10.87;;
19084;SDS011;9675;51.538;6.728;2024-03-07T07:15:56;22.73;;;11.00;;
19084;SDS011;9675;51.538;6.728;2024-03-07T07:18:23;23.23;;;10.13;;
19084;SDS011;9675;51.538;6.728;2024-03-07T07:20:51;19.83;;;9.27;;
19084;SDS011;9675;51.538;6.728;2024-03-07T07:23:18;26.40;;;10.63;;
19084;SDS011;9675;51.538;6.728;2024-03-07T07:25:47;23.90;;;10.33;;
19084;SDS011;9675;51.538;6.728;2024-03-07T07:28:14;21.40;;;9.60;;
19084;SDS011;9675;51.538;6.728;2024-03-07T07:30:41;21.30;;;10.07;;
19084;SDS011;9675;51.538;6.728;2024-03-07T07:33:08;24.10;;;10.73;;
19084;SDS011;9675;51.538;6.728;2024-03-07T07:35:35;20.60;;;9.90;;
19084;SDS011;9675;51.538;6.728;2024-03-07T07:38:04;30.17;;;12.90;;
19084;SDS011;9675;51.538;6.728;2024-03-07T07:40:32;23.17;;;9.27;;
19084;SDS011;9675;51.538;6.728;2024-03-07T07:43:02;19.93;;;9.57;;
19084;SDS011;9675;51.538;6.728;2024-03-07T07:45:29;26.60;;;10.83;;
19084;SDS011;9675;51.538;6.728;2024-03-07T07:47:57;25.57;;;8.87;;
19084;SDS011;9675;51.538;6.728;2024-03-07T07:50:24;21.70;;;9.87;;
19084;SDS011;9675;51.538;6.728;2024-03-07T07:52:51;24.43;;;10.80;;
19084;SDS011;9675;51.538;6.728;2024-03-07T07:55:21;31.03;;;12.20;;
19084;SDS011;9675;51.538;6.728;2024-03-07T07:57:50;18.97;;;7.93;;
19084;SDS011;9675;51.538;6.728;2024-03-07T08:00:21;19.83;;;8.67;;
19084;SDS011;9675;51.538;6.728;2024-03-07T08:02:50;25.57;;;10.47;;
19084;SDS011;9675;51.538;6.728;2024-03-07T08:05:19;27.43;;;11.17;;
19084;SDS011;9675;51.538;6.728;2024-03-07T08:07:48;26.70;;;11.27;;
19084;SDS011;9675;51.538;6.728;2024-03-07T08:10:16;19.70;;;9.90;;
19084;SDS011;9675;51.538;6.728;2024-03-07T08:12:44;21.13;;;9.80;;
19084;SDS011;9675;51.538;6.728;2024-03-07T08:15:11;12.07;;;6.13;;
19084;SDS011;9675;51.538;6.728;2024-03-07T08:17:44;26.47;;;10.23;;
19084;SDS011;9675;51.538;6.728;2024-03-07T08:20:13;22.73;;;7.97;;
19084;SDS011;9675;51.538;6.728;2024-03-07T08:22:43;21.03;;;8.40;;
19084;SDS011;9675;51.538;6.728;2024-03-07T08:25:11;22.33;;;8.60;;
19084;SDS011;9675;51.538;6.728;2024-03-07T08:27:40;6.63;;;3.60;;
19084;SDS011;9675;51.538;6.728;2024-03-07T08:30:11;24.50;;;10.63;;
19084;SDS011;9675;51.538;6.728;2024-03-07T08:32:39;22.93;;;10.80;;
19084;SDS011;9675;51.538;6.728;2024-03-07T08:35:09;24.83;;;10.10;;
19084;SDS011;9675;51.538;6.728;2024-03-07T08:37:37;19.77;;;7.83;;
19084;SDS011;9675;51.538;6.728;2024-03-07T08:40:05;30.50;;;12.17;;
19084;SDS011;9675;51.538;6.728;2024-03-07T08:42:36;35.80;;;16.03;;
19084;SDS011;9675;51.538;6.728;2024-03-07T08:45:04;25.30;;;10.33;;
19084;SDS011;9675;51.538;6.728;2024-03-07T08:47:36;27.53;;;13.43;;
19084;SDS011;9675;51.538;6.728;2024-03-07T08:50:04;34.47;;;12.93;;
19084;SDS011;9675;51.538;6.728;2024-03-07T08:52:34;36.43;;;17.23;;
19084;SDS011;9675;51.538;6.728;2024-03-07T08:55:03;26.87;;;12.73;;
19084;SDS011;9675;51.538;6.728;2024-03-07T08:57:34;11.47;;;6.60;;
19084;SDS011;9675;51.538;6.728;2024-03-07T09:00:02;19.50;;;8.60;;
19084;SDS011;9675;51.538;6.728;2024-03-07T09:02:33;26.77;;;11.77;;
19084;SDS011;9675;51.538;6.728;2024-03-07T09:05:00;31.10;;;12.10;;
19084;SDS011;9675;51.538;6.728;2024-03-07T09:07:27;30.83;;;14.67;;
19084;SDS011;9675;51.538;6.728;2024-03-07T09:09:56;32.33;;;13.47;;
19084;SDS011;9675;51.538;6.728;2024-03-07T09:12:24;27.50;;;13.03;;
19084;SDS011;9675;51.538;6.728;2024-03-07T09:14:51;28.97;;;12.33;;
19084;SDS011;9675;51.538;6.728;2024-03-07T09:17:18;24.60;;;10.27;;
19084;SDS011;9675;51.538;6.728;2024-03-07T09:19:46;25.00;;;11.07;;
19084;SDS011;9675;51.538;6.728;2024-03-07T09:22:13;16.60;;;6.47;;
19084;SDS011;9675;51.538;6.728;2024-03-07T09:24:40;28.53;;;12.90;;
19084;SDS011;9675;51.538;6.728;2024-03-07T09:27:08;21.00;;;9.20;;
19084;SDS011;9675;51.538;6.728;2024-03-07T09:29:35;28.63;;;12.63;;
19084;SDS011;9675;51.538;6.728;2024-03-07T09:32:02;17.67;;;8.17;;
19084;SDS011;9675;51.538;6.728;2024-03-07T09:34:33;25.13;;;11.00;;
19084;SDS011;9675;51.538;6.728;2024-03-07T09:37:00;19.63;;;8.63;;
19084;SDS011;9675;51.538;6.728;2024-03-07T09:39:28;27.27;;;10.67;;
19084;SDS011;9675;51.538;6.728;2024-03-07T09:41:56;20.80;;;8.93;;
19084;SDS011;9675;51.538;6.728;2024-03-07T09:44:25;29.23;;;12.17;;
19084;SDS011;9675;51.538;6.728;2024-03-07T09:46:55;23.90;;;9.97;;
19084;SDS011;9675;51.538;6.728;2024-03-07T09:49:23;24.43;;;8.57;;
19084;SDS011;9675;51.538;6.728;2024-03-07T09:51:53;16.00;;;8.43;;
19084;SDS011;9675;51.538;6.728;2024-03-07T09:54:25;21.97;;;8.60;;
19084;SDS011;9675;51.538;6.728;2024-03-07T09:56:53;20.10;;;9.83;;
19084;SDS011;9675;51.538;6.728;2024-03-07T09:59:24;22.77;;;9.00;;
19084;SDS011;9675;51.538;6.728;2024-03-07T10:01:55;25.77;;;8.90;;
19084;SDS011;9675;51.538;6.728;2024-03-07T10:04:27;19.00;;;8.23;;
19084;SDS011;9675;51.538;6.728;2024-03-07T10:07:06;23.93;;;9.47;;
19084;SDS011;9675;51.538;6.728;2024-03-07T10:09:45;21.27;;;9.73;;
19084;SDS011;9675;51.538;6.728;2024-03-07T10:12:14;23.83;;;9.73;;
19084;SDS011;9675;51.538;6.728;2024-03-07T10:14:47;23.27;;;8.60;;
19084;SDS011;9675;51.538;6.728;2024-03-07T10:17:15;6.00;;;2.40;;
19084;SDS011;9675;51.538;6.728;2024-03-07T10:19:45;17.80;;;7.20;;
19084;SDS011;9675;51.538;6.728;2024-03-07T10:22:14;20.87;;;7.97;;
19084;SDS011;9675;51.538;6.728;2024-03-07T10:24:50;19.50;;;8.00;;
19084;SDS011;9675;51.538;6.728;2024-03-07T10:27:17;22.63;;;11.00;;
19084;SDS011;9675;51.538;6.728;2024-03-07T10:29:46;13.53;;;6.03;;
19084;SDS011;9675;51.538;6.728;2024-03-07T10:32:18;16.97;;;8.30;;
19084;SDS011;9675;51.538;6.728;2024-03-07T10:34:46;18.23;;;8.57;;
19084;SDS011;9675;51.538;6.728;2024-03-07T10:37:13;6.33;;;2.97;;
19084;SDS011;9675;51.538;6.728;2024-03-07T10:39:42;9.47;;;4.50;;
19084;SDS011;9675;51.538;6.728;2024-03-07T10:42:13;14.53;;;6.53;;
19084;SDS011;9675;51.538;6.728;2024-03-07T10:44:42;13.70;;;5.30;;
19084;SDS011;9675;51.538;6.728;2024-03-07T10:47:14;21.93;;;8.43;;
19084;SDS011;9675;51.538;6.728;2024-03-07T10:49:46;25.00;;;10.67;;
19084;SDS011;9675;51.538;6.728;2024-03-07T10:52:39;23.97;;;9.47;;
19084;SDS011;9675;51.538;6.728;2024-03-07T10:55:15;18.90;;;7.13;;
19084;SDS011;9675;51.538;6.728;2024-03-07T10:58:01;14.60;;;5.90;;
19084;SDS011;9675;51.538;6.728;2024-03-07T11:00:38;7.27;;;2.67;;
19084;SDS011;9675;51.538;6.728;2024-03-07T11:03:10;19.43;;;11.23;;
19084;SDS011;9675;51.538;6.728;2024-03-07T11:05:39;8.43;;;3.67;;
19084;SDS011;9675;51.538;6.728;2024-03-07T11:08:09;24.07;;;10.30;;
19084;SDS011;9675;51.538;6.728;2024-03-07T11:10:38;10.63;;;4.03;;
19084;SDS011;9675;51.538;6.728;2024-03-07T11:13:08;20.37;;;8.77;;
19084;SDS011;9675;51.538;6.728;2024-03-07T11:15:37;18.30;;;8.50;;
19084;SDS011;9675;51.538;6.728;2024-03-07T11:18:12;18.27;;;8.27;;
19084;SDS011;9675;51.538;6.728;2024-03-07T11:20:41;17.47;;;7.47;;
19084;SDS011;9675;51.538;6.728;2024-03-07T11:23:24;14.63;;;6.40;;
19084;SDS011;9675;51.538;6.728;2024-03-07T11:25:55;15.33;;;6.67;;
19084;SDS011;9675;51.538;6.728;2024-03-07T11:28:34;10.53;;;3.53;;
19084;SDS011;9675;51.538;6.728;2024-03-07T11:31:09;16.07;;;7.87;;
19084;SDS011;9675;51.538;6.728;2024-03-07T11:33:39;15.90;;;7.13;;
19084;SDS011;9675;51.538;6.728;2024-03-07T11:36:07;16.40;;;7.40;;
19084;SDS011;9675;51.538;6.728;2024-03-07T11:38:37;8.97;;;3.37;;
19084;SDS011;9675;51.538;6.728;2024-03-07T11:41:04;14.77;;;5.83;;
19084;SDS011;9675;51.538;6.728;2024-03-07T11:43:39;22.37;;;8.77;;
19084;SDS011;9675;51.538;6.728;2024-03-07T11:46:07;4.43;;;2.33;;
19084;SDS011;9675;51.538;6.728;2024-03-07T11:48:38;9.57;;;4.37;;
19084;SDS011;9675;51.538;6.728;2024-03-07T11:51:07;16.80;;;7.90;;
19084;SDS011;9675;51.538;6.728;2024-03-07T11:53:38;20.47;;;9.97;;
19084;SDS011;9675;51.538;6.728;2024-03-07T11:56:06;18.73;;;9.80;;
19084;SDS011;9675;51.538;6.728;2024-03-07T11:58:38;14.70;;;6.93;;
19084;SDS011;9675;51.538;6.728;2024-03-07T12:01:06;22.03;;;10.67;;
19084;SDS011;9675;51.538;6.728;2024-03-07T12:03:36;17.50;;;8.83;;
19084;SDS011;9675;51.538;6.728;2024-03-07T12:06:04;18.97;;;10.77;;
19084;SDS011;9675;51.538;6.728;2024-03-07T12:08:31;25.40;;;11.23;;
19084;SDS011;9675;51.538;6.728;2024-03-07T12:10:58;20.80;;;10.50;;
19084;SDS011;9675;51.538;6.728;2024-03-07T12:13:28;21.53;;;10.87;;
19084;SDS011;9675;51.538;6.728;2024-03-07T12:15:56;17.87;;;9.20;;
19084;SDS011;9675;51.538;6.728;2024-03-07T12:18:24;6.77;;;2.90;;
19084;SDS011;9675;51.538;6.728;2024-03-07T12:20:51;18.67;;;9.00;;
19084;SDS011;9675;51.538;6.728;2024-03-07T12:23:22;5.73;;;2.83;;
19084;SDS011;9675;51.538;6.728;2024-03-07T12:25:58;9.87;;;5.00;;
19084;SDS011;9675;51.538;6.728;2024-03-07T12:28:27;19.53;;;8.43;;
19084;SDS011;9675;51.538;6.728;2024-03-07T12:30:59;12.13;;;6.27;;
19084;SDS011;9675;51.538;6.728;2024-03-07T12:33:28;19.73;;;9.70;;
19084;SDS011;9675;51.538;6.728;2024-03-07T12:36:01;19.83;;;10.87;;
19084;SDS011;9675;51.538;6.728;2024-03-07T12:38:32;23.47;;;11.67;;
19084;SDS011;9675;51.538;6.728;2024-03-07T12:41:02;8.67;;;3.93;;
19084;SDS011;9675;51.538;6.728;2024-03-07T12:43:32;6.77;;;2.47;;
19084;SDS011;9675;51.538;6.728;2024-03-07T12:46:01;9.33;;;4.23;;
19084;SDS011;9675;51.538;6.728;2024-03-07T12:48:31;6.60;;;3.77;;
19084;SDS011;9675;51.538;6.728;2024-03-07T12:50:58;5.60;;;1.30;;
19084;SDS011;9675;51.538;6.728;2024-03-07T12:53:26;19.60;;;9.57;;
19084;SDS011;9675;51.538;6.728;2024-03-07T12:55:54;16.87;;;7.67;;
19084;SDS011;9675;51.538;6.728;2024-03-07T12:58:21;18.67;;;10.27;;
19084;SDS011;9675;51.538;6.728;2024-03-07T13:00:50;20.70;;;10.07;;
19084;SDS011;9675;51.538;6.728;2024-03-07T13:03:21;18.00;;;9.40;;
19084;SDS011;9675;51.538;6.728;2024-03-07T13:05:53;6.97;;;4.60;;
19084;SDS011;9675;51.538;6.728;2024-03-07T13:08:20;15.53;;;7.30;;
19084;SDS011;9675;51.538;6.728;2024-03-07T13:10:51;17.53;;;7.13;;
19084;SDS011;9675;51.538;6.728;2024-03-07T13:13:20;9.17;;;4.43;;
19084;SDS011;9675;51.538;6.728;2024-03-07T13:15:47;14.50;;;7.83;;
19084;SDS011;9675;51.538;6.728;2024-03-07T13:18:16;16.10;;;9.53;;
19084;SDS011;9675;51.538;6.728;2024-03-07T13:20:44;18.07;;;9.70;;
19084;SDS011;9675;51.538;6.728;2024-03-07T13:23:13;13.00;;;7.57;;
19084;SDS011;9675;51.538;6.728;2024-03-07T13:25:40;20.03;;;9.53;;
19084;SDS011;9675;51.538;6.728;2024-03-07T13:28:09;6.80;;;3.80;;
19084;SDS011;9675;51.538;6.728;2024-03-07T13:30:41;15.53;;;9.13;;
19084;SDS011;9675;51.538;6.728;2024-03-07T13:33:13;9.53;;;5.57;;
19084;SDS011;9675;51.538;6.728;2024-03-07T13:35:40;18.47;;;10.30;;
19084;SDS011;9675;51.538;6.728;2024-03-07T13:38:09;16.20;;;9.13;;
19084;SDS011;9675;51.538;6.728;2024-03-07T13:40:38;15.20;;;7.30;;
19084;SDS011;9675;51.538;6.728;2024-03-07T13:43:06;14.63;;;8.83;;
19084;SDS011;9675;51.538;6.728;2024-03-07T13:45:34;14.43;;;4.73;;
19084;SDS011;9675;51.538;6.728;2024-03-07T13:48:04;12.30;;;6.17;;
19084;SDS011;9675;51.538;6.728;2024-03-07T13:50:34;17.40;;;8.53;;
19084;SDS011;9675;51.538;6.728;2024-03-07T13:53:03;14.47;;;6.20;;
19084;SDS011;9675;51.538;6.728;2024-03-07T13:55:41;15.83;;;8.20;;
19084;SDS011;9675;51.538;6.728;2024-03-07T13:58:25;14.97;;;7.20;;
19084;SDS011;9675;51.538;6.728;2024-03-07T14:01:17;7.03;;;3.57;;
19084;SDS011;9675;51.538;6.728;2024-03-07T14:04:12;13.70;;;5.90;;
19084;SDS011;9675;51.538;6.728;2024-03-07T14:07:41;15.50;;;7.00;;
19084;SDS011;9675;51.538;6.728;2024-03-07T14:10:38;12.73;;;6.77;;
19084;SDS011;9675;51.538;6.728;2024-03-07T14:13:43;14.50;;;7.10;;
19084;SDS011;9675;51.538;6.728;2024-03-07T14:16:40;16.23;;;8.23;;
19084;SDS011;9675;51.538;6.728;2024-03-07T14:29:17;10.83;;;4.90;;
19084;SDS011;9675;51.538;6.728;2024-03-07T14:31:56;11.70;;;6.73;;
19084;SDS011;9675;51.538;6.728;2024-03-07T14:34:37;5.20;;;3.03;;
19084;SDS011;9675;51.538;6.728;2024-03-07T14:37:27;12.07;;;5.90;;
19084;SDS011;9675;51.538;6.728;2024-03-07T14:40:07;13.50;;;5.97;;
19084;SDS011;9675;51.538;6.728;2024-03-07T14:42:41;12.50;;;6.53;;
19084;SDS011;9675;51.538;6.728;2024-03-07T14:45:12;14.10;;;7.20;;
19084;SDS011;9675;51.538;6.728;2024-03-07T14:47:47;14.87;;;7.00;;
19084;SDS011;9675;51.538;6.728;2024-03-07T14:50:17;12.97;;;6.20;;
19084;SDS011;9675;51.538;6.728;2024-03-07T14:52:45;10.87;;;5.47;;
19084;SDS011;9675;51.538;6.728;2024-03-07T14:55:13;8.67;;;4.60;;
19084;SDS011;9675;51.538;6.728;2024-03-07T14:57:46;10.20;;;5.50;;
19084;SDS011;9675;51.538;6.728;2024-03-07T15:00:13;16.17;;;7.03;;
19084;SDS011;9675;51.538;6.728;2024-03-07T15:02:45;11.30;;;5.80;;
19084;SDS011;9675;51.538;6.728;2024-03-07T15:05:14;12.90;;;5.60;;